Byron, Minnesota
Current Conditions -  °F | °C
As of 9:13 AM on Friday 19 Dec 2014 (Local Time) from K9MN Reporting Station
Overcast Overcast  
Wind Chill: -7°   Ceiling: 1900
Heat Index: -4°   Visibility: 10mi
Dew Point: -7°   Wind: 5mph
Humidity: 79%   Direction: 140°SE
Pressure: 30.25"   Gusts: NA
Location:  44.03°N, 92.65°W
Report Text: K9MN 191513Z AUTO 14004KT 10SM OVC019 M04/M07 A3025 RMK AO1 T10411073
Loading
Personal Weather Stations






























Interactive Weather Map New forecast layout! Learn more

10-Day Weather Forecast

Advertisements
Track Severe Weather on mobile